createdAt,value
2019-04-29T00:00:13.790Z,18.97
2019-04-29T00:02:43.000Z,19.83
2019-04-29T00:05:12.454Z,18.20
2019-04-29T00:07:41.604Z,21.37
2019-04-29T00:10:13.006Z,19.40
2019-04-29T00:12:42.336Z,18.40
2019-04-29T00:15:30.934Z,19.87
2019-04-29T00:18:04.730Z,19.17
2019-04-29T00:20:41.780Z,18.73
2019-04-29T00:23:10.987Z,19.40
2019-04-29T00:25:40.347Z,18.80
2019-04-29T00:28:09.701Z,20.17
2019-04-29T00:30:38.913Z,17.43
2019-04-29T00:33:07.987Z,18.40
2019-04-29T00:35:37.720Z,21.07
2019-04-29T00:38:34.971Z,19.13
2019-04-29T00:41:22.035Z,19.27
2019-04-29T00:43:56.744Z,21.93
2019-04-29T00:46:26.044Z,22.00
2019-04-29T00:48:55.247Z,22.53
2019-04-29T00:51:24.473Z,21.60
2019-04-29T00:53:57.867Z,18.87
2019-04-29T00:56:27.180Z,18.40
2019-04-29T00:58:56.363Z,20.07
2019-04-29T01:01:26.316Z,18.93
2019-04-29T01:03:55.413Z,18.20
2019-04-29T01:06:24.583Z,18.67
2019-04-29T01:08:53.684Z,18.50
2019-04-29T01:11:22.971Z,18.53
2019-04-29T01:13:52.078Z,20.30
2019-04-29T01:16:21.194Z,21.10
2019-04-29T01:18:50.329Z,19.30
2019-04-29T01:21:19.459Z,21.20
2019-04-29T01:23:48.564Z,23.10
2019-04-29T01:26:39.501Z,21.23
2019-04-29T01:29:09.785Z,20.00
2019-04-29T01:31:39.149Z,21.77
2019-04-29T01:34:14.231Z,23.17
2019-04-29T01:36:44.879Z,21.70
2019-04-29T01:39:15.488Z,22.47
2019-04-29T01:42:03.637Z,22.03
2019-04-29T01:44:34.932Z,21.13
2019-04-29T01:47:04.215Z,19.30
2019-04-29T01:49:33.361Z,20.33
2019-04-29T01:52:02.756Z,23.07
2019-04-29T01:54:31.871Z,20.57
2019-04-29T01:57:01.024Z,22.20
2019-04-29T01:59:30.119Z,20.43
2019-04-29T02:01:59.315Z,19.03
2019-04-29T02:04:28.704Z,18.90
2019-04-29T02:06:57.945Z,19.57
2019-04-29T02:09:32.104Z,18.17
2019-04-29T02:12:01.428Z,19.10
2019-04-29T02:14:30.648Z,19.63
2019-04-29T02:16:59.864Z,21.33
2019-04-29T02:19:29.032Z,21.63
2019-04-29T02:22:26.263Z,19.70
2019-04-29T02:25:04.352Z,19.27
2019-04-29T02:27:33.462Z,19.23
2019-04-29T02:30:02.829Z,20.00
2019-04-29T02:32:31.963Z,20.40
2019-04-29T02:35:01.268Z,22.93
2019-04-29T02:37:34.474Z,19.03
2019-04-29T02:40:13.931Z,25.73
2019-04-29T02:42:51.096Z,19.87
2019-04-29T02:45:24.798Z,22.70
2019-04-29T02:47:54.055Z,19.70
2019-04-29T02:50:23.262Z,18.70
2019-04-29T02:52:52.454Z,21.93
2019-04-29T02:55:27.643Z,21.03
2019-04-29T02:58:12.706Z,20.13
2019-04-29T03:01:00.740Z,21.77
2019-04-29T03:03:45.112Z,21.87
2019-04-29T03:06:14.453Z,20.67
2019-04-29T03:08:43.645Z,18.53
2019-04-29T03:11:13.849Z,19.13
2019-04-29T03:13:43.034Z,19.60
2019-04-29T03:16:12.145Z,21.93
2019-04-29T03:18:46.413Z,20.40
2019-04-29T03:21:29.996Z,19.07
2019-04-29T03:23:59.295Z,20.40
2019-04-29T03:26:28.647Z,21.67
2019-04-29T03:28:58.052Z,20.27
2019-04-29T03:31:27.197Z,20.20
2019-04-29T03:33:56.413Z,20.00
2019-04-29T03:36:25.811Z,18.80
2019-04-29T03:38:55.232Z,18.73
2019-04-29T03:41:24.429Z,19.77
2019-04-29T03:43:53.648Z,21.87
2019-04-29T03:46:22.766Z,21.73
2019-04-29T03:48:52.013Z,21.67
2019-04-29T03:51:21.223Z,21.17
2019-04-29T03:53:50.433Z,22.17
2019-04-29T03:56:19.616Z,23.43
2019-04-29T03:58:48.988Z,22.97
2019-04-29T04:01:42.932Z,21.67
2019-04-29T04:04:36.979Z,21.00
2019-04-29T04:07:23.704Z,24.63
2019-04-29T04:09:52.939Z,21.57
2019-04-29T04:12:22.194Z,25.23
2019-04-29T04:14:51.220Z,20.57
2019-04-29T04:17:27.403Z,23.90
2019-04-29T04:19:56.643Z,23.87
2019-04-29T04:22:25.893Z,22.83
2019-04-29T04:24:55.211Z,26.43
2019-04-29T04:27:24.409Z,27.90
2019-04-29T04:29:53.730Z,24.93
2019-04-29T04:32:22.809Z,24.07
2019-04-29T04:34:51.961Z,26.13
2019-04-29T04:37:21.233Z,25.23
2019-04-29T04:39:50.404Z,26.10
2019-04-29T04:42:19.538Z,28.17
2019-04-29T04:44:49.088Z,27.30
2019-04-29T04:47:19.203Z,27.33
2019-04-29T04:49:48.396Z,28.60
2019-04-29T04:52:17.700Z,27.67
2019-04-29T04:54:48.927Z,27.83
2019-04-29T04:57:18.235Z,27.03
2019-04-29T04:59:47.340Z,27.30
2019-04-29T05:02:16.460Z,32.13
2019-04-29T05:04:45.660Z,29.93
2019-04-29T05:07:14.731Z,30.17
2019-04-29T05:09:43.927Z,27.20
2019-04-29T05:12:14.246Z,25.20
2019-04-29T05:14:43.571Z,27.43
2019-04-29T05:17:12.727Z,27.47
2019-04-29T05:19:41.945Z,25.73
2019-04-29T05:22:11.060Z,27.03
2019-04-29T05:24:40.315Z,30.30
2019-04-29T05:27:09.324Z,23.60
2019-04-29T05:29:38.646Z,24.67
2019-04-29T05:32:07.810Z,21.27
2019-04-29T05:34:41.842Z,23.50
2019-04-29T05:37:21.872Z,23.33
2019-04-29T05:39:51.135Z,23.37
2019-04-29T05:42:20.358Z,24.83
2019-04-29T05:44:58.924Z,22.50
2019-04-29T05:47:37.151Z,22.33
2019-04-29T05:50:38.810Z,21.27
2019-04-29T05:53:17.786Z,20.33
2019-04-29T05:55:46.840Z,22.80
2019-04-29T05:58:16.087Z,20.87
2019-04-29T06:00:58.692Z,21.17
2019-04-29T06:03:27.995Z,21.80
2019-04-29T06:05:57.383Z,20.07
2019-04-29T06:08:26.596Z,18.77
2019-04-29T06:10:55.786Z,18.67
2019-04-29T06:13:25.128Z,19.70
2019-04-29T06:15:54.433Z,17.70
2019-04-29T06:18:23.798Z,17.40
2019-04-29T06:20:53.284Z,16.90
2019-04-29T06:23:23.192Z,15.98
2019-04-29T06:25:53.390Z,20.67
2019-04-29T06:28:26.580Z,19.03
2019-04-29T06:30:53.505Z,18.83
2019-04-29T06:33:24.154Z,16.53
2019-04-29T06:35:56.939Z,19.00
2019-04-29T06:38:24.692Z,18.60
2019-04-29T06:40:53.904Z,19.07
2019-04-29T06:43:24.661Z,18.77
2019-04-29T06:45:54.175Z,18.50
2019-04-29T06:48:23.405Z,17.53
2019-04-29T06:50:52.647Z,20.27
2019-04-29T06:53:23.260Z,18.33
2019-04-29T06:55:52.486Z,18.67
2019-04-29T06:58:21.681Z,18.60
2019-04-29T07:00:51.250Z,18.48
2019-04-29T07:03:25.633Z,17.27
2019-04-29T07:05:52.842Z,19.33
2019-04-29T07:08:22.085Z,18.17
2019-04-29T07:10:51.213Z,18.73
2019-04-29T07:13:22.695Z,18.10
2019-04-29T07:15:51.252Z,21.40
2019-04-29T07:18:20.380Z,20.10
2019-04-29T07:20:49.838Z,18.90
2019-04-29T07:23:18.987Z,19.40
2019-04-29T07:25:48.414Z,18.67
2019-04-29T07:28:18.452Z,20.77
2019-04-29T07:31:00.971Z,18.57
2019-04-29T07:33:22.654Z,20.93
2019-04-29T07:35:49.689Z,20.43
2019-04-29T07:38:19.051Z,19.93
2019-04-29T07:40:48.222Z,19.40
2019-04-29T07:43:17.598Z,20.13
2019-04-29T07:46:03.790Z,19.92
2019-04-29T07:48:30.053Z,18.60
2019-04-29T07:51:03.645Z,20.07
2019-04-29T07:53:37.387Z,19.10
2019-04-29T07:56:01.712Z,15.80
2019-04-29T07:58:32.066Z,20.20
2019-04-29T08:01:01.205Z,16.17
2019-04-29T08:03:30.613Z,17.85
2019-04-29T08:05:59.963Z,19.17
2019-04-29T08:08:31.822Z,18.62
2019-04-29T08:11:01.413Z,16.25
2019-04-29T08:13:32.848Z,17.37
2019-04-29T08:16:02.036Z,15.85
2019-04-29T08:18:31.155Z,16.52
2019-04-29T08:21:32.227Z,15.90
2019-04-29T08:24:01.472Z,16.97
2019-04-29T08:26:33.699Z,15.05
2019-04-29T08:29:01.737Z,16.62
2019-04-29T08:31:31.091Z,13.95
2019-04-29T08:34:00.257Z,13.48
2019-04-29T08:36:29.486Z,12.82
2019-04-29T08:39:08.198Z,12.13
2019-04-29T08:41:29.984Z,11.48
2019-04-29T08:44:33.417Z,12.70
2019-04-29T08:47:13.551Z,12.10
2019-04-29T08:49:42.679Z,12.80
2019-04-29T08:52:11.881Z,12.20
2019-04-29T08:54:41.075Z,13.68
2019-04-29T08:57:10.233Z,15.30
2019-04-29T08:59:39.370Z,16.10
2019-04-29T09:02:10.327Z,13.28
2019-04-29T09:04:52.924Z,12.40
2019-04-29T09:07:12.764Z,13.35
2019-04-29T09:09:41.273Z,14.75
2019-04-29T09:12:10.371Z,12.90
2019-04-29T09:14:39.595Z,12.95
2019-04-29T09:17:19.784Z,12.58
2019-04-29T09:19:39.811Z,16.30
2019-04-29T09:22:10.811Z,11.78
2019-04-29T09:24:43.618Z,13.25
2019-04-29T09:27:17.128Z,11.20
2019-04-29T09:29:46.565Z,11.78
2019-04-29T09:32:15.968Z,14.50
2019-04-29T09:34:45.397Z,11.83
2019-04-29T09:37:14.597Z,12.50
2019-04-29T09:39:45.463Z,11.73
2019-04-29T09:42:37.845Z,11.75
2019-04-29T09:45:27.095Z,11.83
2019-04-29T09:47:56.259Z,13.40
2019-04-29T09:50:28.367Z,13.18
2019-04-29T09:52:56.519Z,13.80
2019-04-29T09:55:25.849Z,13.20
2019-04-29T09:57:55.021Z,11.35
2019-04-29T10:00:36.327Z,12.13
2019-04-29T10:03:49.359Z,13.78
2019-04-29T10:06:21.865Z,11.12
2019-04-29T10:08:50.957Z,11.25
2019-04-29T10:11:20.120Z,12.68
2019-04-29T10:13:49.407Z,14.10
2019-04-29T10:16:35.943Z,12.10
2019-04-29T10:19:27.711Z,12.70
2019-04-29T10:21:59.917Z,11.60
2019-04-29T10:24:29.217Z,14.28
2019-04-29T10:26:58.344Z,11.18
2019-04-29T10:29:29.141Z,11.20
2019-04-29T10:31:58.380Z,11.68
2019-04-29T10:34:31.564Z,10.28
2019-04-29T10:36:58.576Z,12.60
2019-04-29T10:39:51.335Z,10.08
2019-04-29T10:42:36.980Z,9.48
2019-04-29T10:45:42.088Z,11.10
2019-04-29T10:48:19.704Z,9.03
2019-04-29T10:50:52.187Z,9.95
2019-04-29T10:53:20.095Z,10.55
2019-04-29T10:55:49.251Z,9.60
2019-04-29T10:58:21.870Z,10.40
2019-04-29T11:02:13.719Z,11.38
2019-04-29T11:04:38.849Z,11.55
2019-04-29T11:07:31.117Z,10.63
2019-04-29T11:10:07.983Z,10.72
2019-04-29T11:12:36.372Z,12.23
2019-04-29T11:15:09.929Z,10.68
2019-04-29T11:17:39.569Z,10.20
2019-04-29T11:20:11.126Z,10.68
2019-04-29T11:22:44.682Z,9.70
2019-04-29T11:25:23.881Z,10.72
2019-04-29T11:27:56.093Z,12.43
2019-04-29T11:30:26.706Z,12.37
2019-04-29T11:33:24.426Z,10.78
2019-04-29T11:36:03.966Z,9.78
2019-04-29T11:38:33.428Z,9.48
2019-04-29T11:41:02.833Z,10.65
2019-04-29T11:43:32.512Z,9.88
2019-04-29T11:46:01.740Z,9.93
2019-04-29T11:48:30.892Z,9.58
2019-04-29T11:51:05.005Z,9.35
2019-04-29T11:53:45.653Z,8.63
2019-04-29T11:56:15.201Z,11.63
2019-04-29T11:58:50.840Z,10.43
2019-04-29T12:01:42.971Z,9.70
2019-04-29T12:04:20.939Z,8.48
2019-04-29T12:06:51.147Z,9.15
2019-04-29T12:09:21.020Z,8.98
2019-04-29T12:11:50.220Z,8.35
2019-04-29T12:14:44.683Z,8.45
2019-04-29T12:17:19.592Z,9.45
2019-04-29T12:19:49.985Z,9.35
2019-04-29T12:22:28.237Z,8.70
2019-04-29T12:24:50.043Z,8.45
2019-04-29T12:27:19.720Z,9.60
2019-04-29T12:29:54.442Z,7.95
2019-04-29T12:32:56.781Z,8.35
2019-04-29T12:35:30.436Z,7.50
2019-04-29T12:38:12.734Z,8.00
2019-04-29T12:41:03.785Z,8.60
2019-04-29T12:43:40.886Z,8.23
2019-04-29T12:46:38.018Z,8.20
2019-04-29T12:49:08.541Z,9.08
2019-04-29T12:51:38.231Z,9.83
2019-04-29T12:54:07.335Z,7.78
2019-04-29T12:56:38.166Z,9.05
2019-04-29T12:59:07.305Z,6.45
2019-04-29T13:02:13.795Z,6.87
2019-04-29T13:04:56.648Z,5.95
2019-04-29T13:07:37.815Z,6.55
2019-04-29T13:10:33.194Z,7.10
2019-04-29T13:13:02.419Z,5.70
2019-04-29T13:15:48.429Z,5.08
2019-04-29T13:18:40.479Z,5.58
2019-04-29T13:21:10.758Z,5.00
2019-04-29T13:23:53.607Z,5.97
2019-04-29T13:26:10.900Z,4.80
2019-04-29T13:28:58.519Z,5.65
2019-04-29T13:31:10.935Z,5.92
2019-04-29T13:33:40.112Z,4.67
2019-04-29T13:36:09.569Z,4.85
2019-04-29T13:38:38.695Z,5.00
2019-04-29T13:41:13.487Z,6.95
2019-04-29T13:43:39.014Z,3.90
2019-04-29T13:46:18.995Z,5.40
2019-04-29T13:49:13.410Z,3.40
2019-04-29T13:51:41.791Z,5.25
2019-04-29T13:54:11.092Z,5.40
2019-04-29T13:56:55.351Z,3.90
2019-04-29T13:59:13.659Z,4.15
2019-04-29T14:02:01.427Z,3.42
2019-04-29T14:04:36.195Z,2.92
2019-04-29T14:07:05.443Z,3.87
2019-04-29T14:09:35.011Z,5.30
2019-04-29T14:12:46.589Z,3.67
2019-04-29T14:14:36.804Z,2.62
2019-04-29T14:17:24.947Z,2.27
2019-04-29T14:19:42.617Z,3.15
2019-04-29T14:22:21.367Z,2.62
2019-04-29T14:24:39.998Z,1.77
2019-04-29T14:27:09.176Z,2.05
2019-04-29T14:29:38.346Z,3.25
2019-04-29T14:32:07.744Z,3.40
2019-04-29T14:34:45.545Z,2.42
2019-04-29T14:37:23.397Z,1.22
2019-04-29T14:39:45.633Z,1.75
2019-04-29T14:42:33.797Z,0.90
2019-04-29T14:45:20.891Z,1.87
2019-04-29T14:48:13.640Z,1.92
2019-04-29T14:50:43.578Z,1.37
2019-04-29T14:53:12.842Z,2.12
2019-04-29T14:55:42.015Z,3.50
2019-04-29T14:58:11.217Z,1.80
2019-04-29T15:01:08.963Z,2.02
2019-04-29T15:04:18.041Z,1.00
2019-04-29T15:06:41.089Z,3.30
2019-04-29T15:09:16.692Z,2.58
2019-04-29T15:12:08.532Z,2.92
2019-04-29T15:15:07.468Z,3.05
2019-04-29T15:17:58.843Z,4.47
2019-04-29T15:20:44.372Z,2.50
2019-04-29T15:23:27.532Z,3.67
2019-04-29T15:25:44.663Z,3.65
2019-04-29T15:28:13.760Z,4.17
2019-04-29T15:30:42.955Z,4.37
2019-04-29T15:33:12.127Z,3.45
2019-04-29T15:35:42.927Z,5.15
2019-04-29T15:38:12.209Z,2.83
2019-04-29T15:40:42.992Z,3.40
2019-04-29T15:43:12.610Z,4.70
2019-04-29T15:45:41.953Z,5.25
2019-04-29T15:48:11.316Z,5.08
2019-04-29T15:50:40.512Z,7.22
2019-04-29T15:53:09.711Z,5.83
2019-04-29T15:55:39.609Z,3.62
2019-04-29T15:58:10.186Z,2.50
2019-04-29T16:00:45.095Z,4.03
2019-04-29T16:03:17.757Z,5.92
2019-04-29T16:06:11.096Z,4.83
2019-04-29T16:08:45.539Z,6.53
2019-04-29T16:11:33.396Z,4.90
2019-04-29T16:14:09.302Z,6.12
2019-04-29T16:16:35.728Z,5.00
2019-04-29T16:19:08.133Z,6.65
2019-04-29T16:21:39.323Z,6.67
2019-04-29T16:24:25.121Z,6.12
2019-04-29T16:26:37.770Z,6.33
2019-04-29T16:29:12.430Z,5.00
2019-04-29T16:31:37.980Z,7.80
2019-04-29T16:34:07.315Z,9.43
2019-04-29T16:36:36.527Z,7.75
2019-04-29T16:39:07.226Z,6.17
2019-04-29T16:42:13.009Z,5.17
2019-04-29T16:44:42.205Z,5.87
2019-04-29T16:49:42.728Z,9.68
2019-04-29T16:52:11.933Z,8.73
2019-04-29T16:54:41.171Z,5.87
2019-04-29T16:57:10.467Z,6.12
2019-04-29T16:59:39.629Z,8.25
2019-04-29T17:02:08.904Z,5.08
2019-04-29T17:04:38.142Z,6.60
2019-04-29T17:07:13.268Z,5.80
2019-04-29T17:10:15.511Z,9.05
2019-04-29T17:12:49.024Z,6.95
2019-04-29T17:15:25.099Z,5.62
2019-04-29T17:17:49.328Z,6.22
2019-04-29T17:20:18.465Z,6.33
2019-04-29T17:22:47.762Z,5.87
2019-04-29T17:25:17.123Z,8.30
2019-04-29T17:28:24.342Z,9.08
2019-04-29T17:31:14.721Z,9.08
2019-04-29T17:33:57.255Z,6.55
2019-04-29T17:35:14.349Z,6.97
2019-04-29T17:36:26.923Z,7.45
2019-04-29T17:38:56.095Z,7.70
2019-04-29T17:41:25.410Z,7.40
2019-04-29T17:44:31.668Z,5.30
2019-04-29T17:47:18.324Z,5.25
2019-04-29T17:49:55.877Z,7.58
2019-04-29T17:52:27.568Z,5.58
2019-04-29T17:55:05.160Z,10.70
2019-04-29T17:57:42.383Z,8.05
2019-04-29T18:00:41.346Z,6.37
2019-04-29T18:03:34.829Z,8.15
2019-04-29T18:06:07.625Z,5.42
2019-04-29T18:08:44.864Z,8.40
2019-04-29T18:11:15.004Z,8.90
2019-04-29T18:13:45.858Z,7.33
2019-04-29T18:16:18.926Z,6.47
2019-04-29T18:19:06.385Z,5.60
2019-04-29T18:21:53.123Z,8.93
2019-04-29T18:24:37.860Z,5.87
2019-04-29T18:27:10.271Z,7.97
2019-04-29T18:29:41.783Z,7.33
2019-04-29T18:32:10.586Z,6.85
2019-04-29T18:34:39.680Z,7.30
2019-04-29T18:37:08.828Z,10.70
2019-04-29T18:39:38.257Z,6.75
2019-04-29T18:42:07.661Z,7.62
2019-04-29T18:44:40.457Z,8.30
2019-04-29T18:47:07.596Z,7.20
2019-04-29T18:49:36.805Z,6.80
2019-04-29T18:52:07.774Z,7.22
2019-04-29T18:54:37.004Z,6.40
2019-04-29T18:57:06.480Z,10.48
2019-04-29T18:59:36.784Z,7.92
2019-04-29T19:02:09.508Z,9.30
2019-04-29T19:04:56.441Z,9.08
2019-04-29T19:07:25.434Z,8.03
2019-04-29T19:09:55.517Z,6.78
2019-04-29T19:12:24.751Z,9.05
2019-04-29T19:14:59.727Z,8.23
2019-04-29T19:17:25.754Z,7.12
2019-04-29T19:19:55.406Z,8.68
2019-04-29T19:22:25.908Z,9.95
2019-04-29T19:24:55.791Z,10.53
2019-04-29T19:27:25.973Z,8.88
2019-04-29T19:29:56.970Z,9.50
2019-04-29T19:32:26.156Z,8.40
2019-04-29T19:34:58.236Z,6.40
2019-04-29T19:37:32.002Z,9.68
2019-04-29T19:39:59.609Z,9.83
2019-04-29T19:42:31.002Z,10.48
2019-04-29T19:44:59.106Z,7.25
2019-04-29T19:47:28.430Z,9.10
2019-04-29T19:49:57.460Z,11.25
2019-04-29T19:52:31.706Z,6.53
2019-04-29T19:55:01.632Z,10.23
2019-04-29T19:57:28.588Z,6.90
2019-04-29T19:59:58.229Z,7.05
2019-04-29T20:02:28.089Z,5.30
2019-04-29T20:05:08.167Z,6.45
2019-04-29T20:07:42.321Z,8.75
2019-04-29T20:10:10.589Z,7.65
2019-04-29T20:12:40.310Z,7.83
2019-04-29T20:15:10.914Z,4.60
2019-04-29T20:17:58.929Z,6.43
2019-04-29T20:20:38.755Z,6.70
2019-04-29T20:23:08.329Z,7.57
2019-04-29T20:25:38.601Z,8.48
2019-04-29T20:28:12.938Z,5.70
2019-04-29T20:30:39.362Z,6.45
2019-04-29T20:33:12.309Z,5.95
2019-04-29T20:35:40.437Z,6.12
2019-04-29T20:38:10.692Z,6.87
2019-04-29T20:40:43.286Z,7.08
2019-04-29T20:43:11.155Z,6.93
2019-04-29T20:45:40.662Z,7.70
2019-04-29T20:48:11.170Z,7.10
2019-04-29T20:50:41.339Z,8.35
2019-04-29T20:53:20.780Z,7.42
2019-04-29T20:55:50.053Z,8.33
2019-04-29T20:58:23.535Z,6.87
2019-04-29T21:00:50.366Z,8.13
2019-04-29T21:03:27.779Z,8.78
2019-04-29T21:05:54.423Z,10.05
2019-04-29T21:08:21.380Z,7.35
2019-04-29T21:10:52.496Z,7.93
2019-04-29T21:13:40.385Z,6.62
2019-04-29T21:16:17.091Z,10.47
2019-04-29T21:18:52.968Z,8.37
2019-04-29T21:21:17.145Z,7.15
2019-04-29T21:23:48.240Z,6.40
2019-04-29T21:26:17.252Z,7.75
2019-04-29T21:28:47.078Z,7.97
2019-04-29T21:31:19.909Z,6.13
2019-04-29T21:33:50.715Z,4.87
2019-04-29T21:36:30.701Z,6.00
2019-04-29T21:39:12.172Z,5.78
2019-04-29T21:42:03.206Z,4.30
2019-04-29T21:44:32.628Z,5.93
2019-04-29T21:47:06.638Z,6.25
2019-04-29T21:49:43.292Z,6.62
2019-04-29T21:52:05.617Z,10.90
2019-04-29T21:54:34.479Z,7.35
2019-04-29T21:57:05.683Z,7.72
2019-04-29T21:59:35.731Z,10.75
2019-04-29T22:02:06.679Z,7.97
2019-04-29T22:04:37.406Z,7.67
2019-04-29T22:07:09.047Z,7.72
2019-04-29T22:09:40.474Z,8.98
2019-04-29T22:12:14.187Z,12.28
2019-04-29T22:14:45.016Z,9.78
2019-04-29T22:17:15.699Z,10.13
2019-04-29T22:20:10.863Z,11.43
2019-04-29T22:22:40.680Z,10.82
2019-04-29T22:25:11.148Z,11.60
2019-04-29T22:27:41.237Z,11.12
2019-04-29T22:30:18.070Z,10.38
2019-04-29T22:32:47.048Z,10.03
2019-04-29T22:35:16.521Z,10.05
2019-04-29T22:37:46.056Z,10.45
2019-04-29T22:40:17.344Z,10.35
2019-04-29T22:43:10.120Z,9.20
2019-04-29T22:45:36.268Z,7.05
2019-04-29T22:48:14.899Z,6.55
2019-04-29T22:50:40.311Z,4.58
2019-04-29T22:53:09.443Z,4.35
2019-04-29T22:55:39.208Z,5.12
2019-04-29T22:58:09.980Z,5.70
2019-04-29T23:00:39.404Z,7.10
2019-04-29T23:03:08.744Z,6.40
2019-04-29T23:05:38.012Z,5.20
2019-04-29T23:08:07.388Z,5.85
2019-04-29T23:10:36.627Z,5.45
2019-04-29T23:13:06.364Z,6.03
2019-04-29T23:15:35.921Z,8.45
2019-04-29T23:18:06.045Z,7.23
2019-04-29T23:20:55.266Z,9.30
2019-04-29T23:23:33.433Z,6.53
2019-04-29T23:26:04.133Z,7.47
2019-04-29T23:28:32.616Z,6.63
2019-04-29T23:31:01.815Z,5.83
2019-04-29T23:33:30.996Z,5.35
2019-04-29T23:36:00.090Z,6.33
2019-04-29T23:38:29.436Z,6.40
2019-04-29T23:40:58.534Z,7.65
2019-04-29T23:43:28.574Z,8.20
2019-04-29T23:46:00.620Z,9.05
2019-04-29T23:48:38.632Z,8.85
2019-04-29T23:50:59.556Z,7.60
2019-04-29T23:53:28.724Z,8.95
2019-04-29T23:56:00.191Z,7.80
2019-04-29T23:58:55.399Z,8.90
